Kezdőlap
METAR-TAF:

METAR-TAF

Repülőterek :

Le Mars Municipal Airport

Le Mars, Iowa, Amerikai Egyesült Államok

földrajzi szélesség: 42-46-41N, földrajzi hosszúság: 096-11-37W, magasság: 365 m

Jelenlegi meteorológiai megfigyelések

A jelentés 43 perccel ezelõtt készült, 17:15 UTC
Különbözõ irányokból fújó szél 3 kt széllökések: 10 kt
Hőmérséklet 25°C
Páratartalom 61%
Légköri nyomás 1009 hPa
Látótávolság: 16.1 km
Kevés felhő 3400 lábon

METAR: KLRJ 201715Z AUTO VRB03G10KT 10SM FEW034 25/17 A2979 RMK AO2

Idő: 12:58 (17:58 UTC)


TAF: hiányzik

Meteorológiai megfigyelések és előrejelzések több, mint 4000 repülőtéren (METAR és TAF jelentéseket).

A térképen piros és sárga pontok jelzik az elérhető meteorológiai állomásokat.

Mozgassa az egeret a pont fölött, hogy megjelenjen az állomás neve.

Azután kattintson az időjárási megfigyelések és előrejelzések megtekintéséhez.

A térkép megváltoztatása: kattintson a fekete keresztel jelölt zöld gombra ráközelítéshez, a vonallal jelölt zöld gombra távolításhoz, vagy a zöld nyilakra a szomszédos térképek eléréséhez.


METAR-TAF: